sensor_id;sensor_type;location;lat;lon;timestamp;P1;durP1;ratioP1;P2;durP2;ratioP2
53108;SDS011;39007;53.090;6.074;2023-04-24T00:00:56;7.47;;;5.78;;
53108;SDS011;39007;53.090;6.074;2023-04-24T00:03:22;6.47;;;4.75;;
53108;SDS011;39007;53.090;6.074;2023-04-24T00:05:49;6.07;;;4.88;;
53108;SDS011;39007;53.090;6.074;2023-04-24T00:08:16;5.93;;;4.45;;
53108;SDS011;39007;53.090;6.074;2023-04-24T00:10:42;6.55;;;4.55;;
53108;SDS011;39007;53.090;6.074;2023-04-24T00:13:08;5.90;;;4.55;;
53108;SDS011;39007;53.090;6.074;2023-04-24T00:15:34;5.65;;;4.35;;
53108;SDS011;39007;53.090;6.074;2023-04-24T00:18:00;6.72;;;4.47;;
53108;SDS011;39007;53.090;6.074;2023-04-24T00:20:27;8.50;;;4.93;;
53108;SDS011;39007;53.090;6.074;2023-04-24T00:23:02;6.32;;;4.70;;
53108;SDS011;39007;53.090;6.074;2023-04-24T00:25:29;6.47;;;4.65;;
53108;SDS011;39007;53.090;6.074;2023-04-24T00:27:55;5.82;;;4.80;;
53108;SDS011;39007;53.090;6.074;2023-04-24T00:30:21;7.00;;;5.05;;
53108;SDS011;39007;53.090;6.074;2023-04-24T00:32:47;6.20;;;4.72;;
53108;SDS011;39007;53.090;6.074;2023-04-24T00:35:13;7.45;;;4.47;;
53108;SDS011;39007;53.090;6.074;2023-04-24T00:37:40;6.85;;;4.70;;
53108;SDS011;39007;53.090;6.074;2023-04-24T00:40:06;8.40;;;5.15;;
53108;SDS011;39007;53.090;6.074;2023-04-24T00:42:32;5.88;;;4.63;;
53108;SDS011;39007;53.090;6.074;2023-04-24T00:44:58;7.75;;;4.90;;
53108;SDS011;39007;53.090;6.074;2023-04-24T00:47:26;6.05;;;4.90;;
53108;SDS011;39007;53.090;6.074;2023-04-24T00:49:52;5.68;;;4.47;;
53108;SDS011;39007;53.090;6.074;2023-04-24T00:52:18;7.28;;;4.90;;
53108;SDS011;39007;53.090;6.074;2023-04-24T00:54:45;6.50;;;4.10;;
53108;SDS011;39007;53.090;6.074;2023-04-24T00:57:12;4.85;;;3.80;;
53108;SDS011;39007;53.090;6.074;2023-04-24T00:59:39;6.22;;;4.25;;
53108;SDS011;39007;53.090;6.074;2023-04-24T01:02:06;6.03;;;3.97;;
53108;SDS011;39007;53.090;6.074;2023-04-24T01:04:33;4.53;;;3.50;;
53108;SDS011;39007;53.090;6.074;2023-04-24T01:07:00;5.72;;;3.60;;
53108;SDS011;39007;53.090;6.074;2023-04-24T01:09:26;5.60;;;3.97;;
53108;SDS011;39007;53.090;6.074;2023-04-24T01:11:52;5.18;;;3.70;;
53108;SDS011;39007;53.090;6.074;2023-04-24T01:14:18;4.57;;;3.33;;
53108;SDS011;39007;53.090;6.074;2023-04-24T01:16:44;5.47;;;3.90;;
53108;SDS011;39007;53.090;6.074;2023-04-24T01:19:10;4.68;;;3.47;;
53108;SDS011;39007;53.090;6.074;2023-04-24T01:21:37;5.05;;;3.30;;
53108;SDS011;39007;53.090;6.074;2023-04-24T01:24:05;5.40;;;3.50;;
53108;SDS011;39007;53.090;6.074;2023-04-24T01:26:31;5.05;;;3.50;;
53108;SDS011;39007;53.090;6.074;2023-04-24T01:28:57;6.35;;;3.25;;
53108;SDS011;39007;53.090;6.074;2023-04-24T01:31:23;6.95;;;3.55;;
53108;SDS011;39007;53.090;6.074;2023-04-24T01:33:49;6.82;;;4.10;;
53108;SDS011;39007;53.090;6.074;2023-04-24T01:36:16;4.40;;;3.22;;
53108;SDS011;39007;53.090;6.074;2023-04-24T01:38:42;4.18;;;3.50;;
53108;SDS011;39007;53.090;6.074;2023-04-24T01:41:09;4.78;;;3.70;;
53108;SDS011;39007;53.090;6.074;2023-04-24T01:43:36;6.15;;;3.90;;
53108;SDS011;39007;53.090;6.074;2023-04-24T01:46:02;5.45;;;4.10;;
53108;SDS011;39007;53.090;6.074;2023-04-24T01:48:28;7.18;;;3.97;;
53108;SDS011;39007;53.090;6.074;2023-04-24T01:50:55;5.35;;;4.10;;
53108;SDS011;39007;53.090;6.074;2023-04-24T01:53:22;6.45;;;4.38;;
53108;SDS011;39007;53.090;6.074;2023-04-24T01:55:48;5.60;;;4.25;;
53108;SDS011;39007;53.090;6.074;2023-04-24T01:58:14;6.18;;;4.55;;
53108;SDS011;39007;53.090;6.074;2023-04-24T02:00:40;6.22;;;4.38;;
53108;SDS011;39007;53.090;6.074;2023-04-24T02:03:06;5.68;;;4.97;;
53108;SDS011;39007;53.090;6.074;2023-04-24T02:05:33;5.50;;;4.72;;
53108;SDS011;39007;53.090;6.074;2023-04-24T02:07:59;6.00;;;4.85;;
53108;SDS011;39007;53.090;6.074;2023-04-24T02:10:25;5.72;;;4.97;;
53108;SDS011;39007;53.090;6.074;2023-04-24T02:12:51;6.65;;;5.20;;
53108;SDS011;39007;53.090;6.074;2023-04-24T02:15:17;6.57;;;5.82;;
53108;SDS011;39007;53.090;6.074;2023-04-24T02:17:43;6.97;;;6.15;;
53108;SDS011;39007;53.090;6.074;2023-04-24T02:20:10;6.57;;;5.90;;
53108;SDS011;39007;53.090;6.074;2023-04-24T02:22:36;10.70;;;6.50;;
53108;SDS011;39007;53.090;6.074;2023-04-24T02:25:02;7.43;;;5.68;;
53108;SDS011;39007;53.090;6.074;2023-04-24T02:27:28;7.70;;;6.55;;
53108;SDS011;39007;53.090;6.074;2023-04-24T02:29:55;7.70;;;6.90;;
53108;SDS011;39007;53.090;6.074;2023-04-24T02:32:21;8.90;;;7.07;;
53108;SDS011;39007;53.090;6.074;2023-04-24T02:34:47;8.45;;;6.95;;
53108;SDS011;39007;53.090;6.074;2023-04-24T02:37:13;8.55;;;7.53;;
53108;SDS011;39007;53.090;6.074;2023-04-24T02:39:39;8.55;;;7.75;;
53108;SDS011;39007;53.090;6.074;2023-04-24T02:42:05;8.52;;;7.57;;
53108;SDS011;39007;53.090;6.074;2023-04-24T02:44:33;8.57;;;7.65;;
53108;SDS011;39007;53.090;6.074;2023-04-24T02:46:59;8.88;;;7.97;;
53108;SDS011;39007;53.090;6.074;2023-04-24T02:49:25;8.02;;;7.25;;
53108;SDS011;39007;53.090;6.074;2023-04-24T02:51:52;10.38;;;9.27;;
53108;SDS011;39007;53.090;6.074;2023-04-24T02:54:18;10.05;;;8.70;;
53108;SDS011;39007;53.090;6.074;2023-04-24T02:56:44;10.30;;;9.30;;
53108;SDS011;39007;53.090;6.074;2023-04-24T02:59:10;9.75;;;8.75;;
53108;SDS011;39007;53.090;6.074;2023-04-24T03:01:36;11.30;;;10.10;;
53108;SDS011;39007;53.090;6.074;2023-04-24T03:04:02;9.98;;;9.07;;
53108;SDS011;39007;53.090;6.074;2023-04-24T03:06:28;10.85;;;9.75;;
53108;SDS011;39007;53.090;6.074;2023-04-24T03:08:56;12.27;;;10.25;;
53108;SDS011;39007;53.090;6.074;2023-04-24T03:11:22;11.90;;;10.65;;
53108;SDS011;39007;53.090;6.074;2023-04-24T03:13:48;11.65;;;10.50;;
53108;SDS011;39007;53.090;6.074;2023-04-24T03:16:14;12.57;;;11.38;;
53108;SDS011;39007;53.090;6.074;2023-04-24T03:18:40;14.70;;;11.43;;
53108;SDS011;39007;53.090;6.074;2023-04-24T03:21:06;13.00;;;11.80;;
53108;SDS011;39007;53.090;6.074;2023-04-24T03:23:32;12.88;;;11.68;;
53108;SDS011;39007;53.090;6.074;2023-04-24T03:25:59;12.32;;;11.13;;
53108;SDS011;39007;53.090;6.074;2023-04-24T03:28:25;13.52;;;12.13;;
53108;SDS011;39007;53.090;6.074;2023-04-24T03:30:51;13.80;;;12.50;;
53108;SDS011;39007;53.090;6.074;2023-04-24T03:33:17;11.85;;;10.75;;
53108;SDS011;39007;53.090;6.074;2023-04-24T03:35:43;11.88;;;10.68;;
53108;SDS011;39007;53.090;6.074;2023-04-24T03:38:10;11.10;;;8.52;;
53108;SDS011;39007;53.090;6.074;2023-04-24T03:40:36;9.65;;;8.65;;
53108;SDS011;39007;53.090;6.074;2023-04-24T03:43:02;6.65;;;5.78;;
53108;SDS011;39007;53.090;6.074;2023-04-24T03:45:28;7.85;;;5.10;;
53108;SDS011;39007;53.090;6.074;2023-04-24T03:47:54;4.22;;;3.40;;
53108;SDS011;39007;53.090;6.074;2023-04-24T03:50:20;4.80;;;3.38;;
53108;SDS011;39007;53.090;6.074;2023-04-24T03:52:46;4.40;;;2.80;;
53108;SDS011;39007;53.090;6.074;2023-04-24T03:55:12;4.88;;;2.50;;
53108;SDS011;39007;53.090;6.074;2023-04-24T03:57:41;5.15;;;2.58;;
53108;SDS011;39007;53.090;6.074;2023-04-24T04:00:07;4.00;;;2.30;;
53108;SDS011;39007;53.090;6.074;2023-04-24T04:02:34;3.10;;;1.98;;
53108;SDS011;39007;53.090;6.074;2023-04-24T04:05:00;3.45;;;1.95;;
53108;SDS011;39007;53.090;6.074;2023-04-24T04:07:27;3.35;;;1.90;;
53108;SDS011;39007;53.090;6.074;2023-04-24T04:09:54;3.28;;;2.00;;
53108;SDS011;39007;53.090;6.074;2023-04-24T04:12:20;3.10;;;1.80;;
53108;SDS011;39007;53.090;6.074;2023-04-24T04:14:47;3.17;;;1.85;;
53108;SDS011;39007;53.090;6.074;2023-04-24T04:17:13;4.15;;;2.22;;
53108;SDS011;39007;53.090;6.074;2023-04-24T04:19:39;2.78;;;1.67;;
53108;SDS011;39007;53.090;6.074;2023-04-24T04:22:05;3.33;;;1.90;;
53108;SDS011;39007;53.090;6.074;2023-04-24T04:24:33;4.47;;;2.20;;
53108;SDS011;39007;53.090;6.074;2023-04-24T04:27:03;2.65;;;1.90;;
53108;SDS011;39007;53.090;6.074;2023-04-24T04:29:30;3.35;;;2.30;;
53108;SDS011;39007;53.090;6.074;2023-04-24T04:31:56;3.47;;;2.70;;
53108;SDS011;39007;53.090;6.074;2023-04-24T04:34:23;4.45;;;2.85;;
53108;SDS011;39007;53.090;6.074;2023-04-24T04:36:49;4.78;;;2.80;;
53108;SDS011;39007;53.090;6.074;2023-04-24T04:39:15;4.38;;;2.90;;
53108;SDS011;39007;53.090;6.074;2023-04-24T04:41:43;4.05;;;2.80;;
53108;SDS011;39007;53.090;6.074;2023-04-24T04:44:11;4.72;;;3.13;;
53108;SDS011;39007;53.090;6.074;2023-04-24T04:46:37;4.70;;;3.10;;
53108;SDS011;39007;53.090;6.074;2023-04-24T04:49:03;4.75;;;3.03;;
53108;SDS011;39007;53.090;6.074;2023-04-24T04:51:30;5.32;;;2.97;;
53108;SDS011;39007;53.090;6.074;2023-04-24T04:53:56;4.38;;;3.05;;
53108;SDS011;39007;53.090;6.074;2023-04-24T04:56:23;4.80;;;2.95;;
53108;SDS011;39007;53.090;6.074;2023-04-24T04:58:49;6.07;;;3.38;;
53108;SDS011;39007;53.090;6.074;2023-04-24T05:01:15;6.70;;;4.22;;
53108;SDS011;39007;53.090;6.074;2023-04-24T05:03:41;6.00;;;4.50;;
53108;SDS011;39007;53.090;6.074;2023-04-24T05:06:07;6.78;;;4.78;;
53108;SDS011;39007;53.090;6.074;2023-04-24T05:08:33;8.32;;;5.05;;
53108;SDS011;39007;53.090;6.074;2023-04-24T05:10:59;8.30;;;5.63;;
53108;SDS011;39007;53.090;6.074;2023-04-24T05:13:25;8.82;;;5.88;;
53108;SDS011;39007;53.090;6.074;2023-04-24T05:15:51;8.48;;;5.70;;
53108;SDS011;39007;53.090;6.074;2023-04-24T05:18:17;8.02;;;4.82;;
53108;SDS011;39007;53.090;6.074;2023-04-24T05:20:43;9.13;;;5.15;;
53108;SDS011;39007;53.090;6.074;2023-04-24T05:23:10;7.22;;;5.00;;
53108;SDS011;39007;53.090;6.074;2023-04-24T05:25:36;7.35;;;4.97;;
53108;SDS011;39007;53.090;6.074;2023-04-24T05:28:04;8.75;;;4.75;;
53108;SDS011;39007;53.090;6.074;2023-04-24T05:30:30;8.77;;;5.72;;
53108;SDS011;39007;53.090;6.074;2023-04-24T05:32:56;9.00;;;5.68;;
53108;SDS011;39007;53.090;6.074;2023-04-24T05:35:22;8.60;;;5.07;;
53108;SDS011;39007;53.090;6.074;2023-04-24T05:37:48;10.32;;;6.13;;
53108;SDS011;39007;53.090;6.074;2023-04-24T05:40:14;8.63;;;6.22;;
53108;SDS011;39007;53.090;6.074;2023-04-24T05:42:41;11.05;;;7.53;;
53108;SDS011;39007;53.090;6.074;2023-04-24T05:45:07;8.20;;;6.68;;
53108;SDS011;39007;53.090;6.074;2023-04-24T05:47:34;10.35;;;6.30;;
53108;SDS011;39007;53.090;6.074;2023-04-24T05:50:00;9.90;;;5.93;;
53108;SDS011;39007;53.090;6.074;2023-04-24T05:52:26;10.85;;;5.22;;
53108;SDS011;39007;53.090;6.074;2023-04-24T05:54:52;12.13;;;5.88;;
53108;SDS011;39007;53.090;6.074;2023-04-24T05:57:18;11.25;;;5.43;;
53108;SDS011;39007;53.090;6.074;2023-04-24T05:59:44;9.32;;;4.65;;
53108;SDS011;39007;53.090;6.074;2023-04-24T06:02:10;8.20;;;4.28;;
53108;SDS011;39007;53.090;6.074;2023-04-24T06:04:37;6.72;;;3.90;;
53108;SDS011;39007;53.090;6.074;2023-04-24T06:07:03;6.47;;;3.90;;
53108;SDS011;39007;53.090;6.074;2023-04-24T06:09:29;6.47;;;3.60;;
53108;SDS011;39007;53.090;6.074;2023-04-24T06:11:55;7.93;;;3.90;;
53108;SDS011;39007;53.090;6.074;2023-04-24T06:14:21;6.43;;;3.60;;
53108;SDS011;39007;53.090;6.074;2023-04-24T06:16:47;6.30;;;3.10;;
53108;SDS011;39007;53.090;6.074;2023-04-24T06:19:13;7.53;;;2.97;;
53108;SDS011;39007;53.090;6.074;2023-04-24T06:21:39;6.18;;;3.00;;
53108;SDS011;39007;53.090;6.074;2023-04-24T06:24:05;6.55;;;2.72;;
53108;SDS011;39007;53.090;6.074;2023-04-24T06:26:32;5.65;;;2.20;;
53108;SDS011;39007;53.090;6.074;2023-04-24T06:28:58;8.27;;;2.28;;
53108;SDS011;39007;53.090;6.074;2023-04-24T06:31:25;4.57;;;1.90;;
53108;SDS011;39007;53.090;6.074;2023-04-24T06:33:51;5.88;;;1.90;;
53108;SDS011;39007;53.090;6.074;2023-04-24T06:36:17;5.68;;;2.05;;
53108;SDS011;39007;53.090;6.074;2023-04-24T06:38:43;4.88;;;1.80;;
53108;SDS011;39007;53.090;6.074;2023-04-24T06:41:09;3.55;;;1.90;;
53108;SDS011;39007;53.090;6.074;2023-04-24T06:43:36;6.30;;;2.20;;
53108;SDS011;39007;53.090;6.074;2023-04-24T06:46:02;7.15;;;2.33;;
53108;SDS011;39007;53.090;6.074;2023-04-24T06:48:28;6.43;;;2.50;;
53108;SDS011;39007;53.090;6.074;2023-04-24T06:50:54;9.02;;;3.25;;
53108;SDS011;39007;53.090;6.074;2023-04-24T06:53:20;7.90;;;3.47;;
53108;SDS011;39007;53.090;6.074;2023-04-24T06:55:46;10.32;;;3.50;;
53108;SDS011;39007;53.090;6.074;2023-04-24T06:58:13;8.75;;;3.45;;
53108;SDS011;39007;53.090;6.074;2023-04-24T07:00:40;6.63;;;3.03;;
53108;SDS011;39007;53.090;6.074;2023-04-24T07:03:06;9.20;;;4.03;;
53108;SDS011;39007;53.090;6.074;2023-04-24T07:05:32;9.05;;;3.00;;
53108;SDS011;39007;53.090;6.074;2023-04-24T07:08:02;8.13;;;3.10;;
53108;SDS011;39007;53.090;6.074;2023-04-24T07:10:28;10.23;;;4.68;;
53108;SDS011;39007;53.090;6.074;2023-04-24T07:12:55;11.55;;;5.40;;
53108;SDS011;39007;53.090;6.074;2023-04-24T07:15:22;10.90;;;6.05;;
53108;SDS011;39007;53.090;6.074;2023-04-24T07:17:51;11.90;;;6.93;;
53108;SDS011;39007;53.090;6.074;2023-04-24T07:20:17;17.02;;;7.90;;
53108;SDS011;39007;53.090;6.074;2023-04-24T07:22:43;17.85;;;9.75;;
53108;SDS011;39007;53.090;6.074;2023-04-24T07:25:09;19.73;;;10.75;;
53108;SDS011;39007;53.090;6.074;2023-04-24T07:27:36;18.38;;;11.13;;
53108;SDS011;39007;53.090;6.074;2023-04-24T07:30:03;22.85;;;12.80;;
53108;SDS011;39007;53.090;6.074;2023-04-24T07:32:29;18.80;;;13.27;;
53108;SDS011;39007;53.090;6.074;2023-04-24T07:34:55;17.73;;;11.48;;
53108;SDS011;39007;53.090;6.074;2023-04-24T07:37:22;20.67;;;11.68;;
53108;SDS011;39007;53.090;6.074;2023-04-24T07:39:48;18.95;;;10.82;;
53108;SDS011;39007;53.090;6.074;2023-04-24T07:42:14;16.67;;;10.20;;
53108;SDS011;39007;53.090;6.074;2023-04-24T07:44:40;17.20;;;10.27;;
53108;SDS011;39007;53.090;6.074;2023-04-24T07:47:06;19.20;;;10.27;;
53108;SDS011;39007;53.090;6.074;2023-04-24T07:49:32;18.27;;;10.60;;
53108;SDS011;39007;53.090;6.074;2023-04-24T07:52:00;23.38;;;12.50;;
53108;SDS011;39007;53.090;6.074;2023-04-24T07:54:27;20.90;;;14.07;;
53108;SDS011;39007;53.090;6.074;2023-04-24T07:56:53;23.35;;;12.70;;
53108;SDS011;39007;53.090;6.074;2023-04-24T07:59:20;20.35;;;13.80;;
53108;SDS011;39007;53.090;6.074;2023-04-24T08:01:46;20.33;;;12.60;;
53108;SDS011;39007;53.090;6.074;2023-04-24T08:04:12;20.67;;;13.52;;
53108;SDS011;39007;53.090;6.074;2023-04-24T08:06:38;20.02;;;14.20;;
53108;SDS011;39007;53.090;6.074;2023-04-24T08:09:04;21.80;;;13.02;;
53108;SDS011;39007;53.090;6.074;2023-04-24T08:11:30;18.02;;;13.10;;
53108;SDS011;39007;53.090;6.074;2023-04-24T08:13:57;17.70;;;11.73;;
53108;SDS011;39007;53.090;6.074;2023-04-24T08:16:23;20.83;;;11.82;;
53108;SDS011;39007;53.090;6.074;2023-04-24T08:18:49;19.15;;;11.38;;
53108;SDS011;39007;53.090;6.074;2023-04-24T08:21:15;14.80;;;9.90;;
53108;SDS011;39007;53.090;6.074;2023-04-24T08:23:43;17.30;;;9.02;;
53108;SDS011;39007;53.090;6.074;2023-04-24T08:26:10;14.57;;;8.45;;
53108;SDS011;39007;53.090;6.074;2023-04-24T08:28:37;15.15;;;8.15;;
53108;SDS011;39007;53.090;6.074;2023-04-24T08:31:03;18.05;;;8.52;;
53108;SDS011;39007;53.090;6.074;2023-04-24T08:33:29;13.75;;;7.57;;
53108;SDS011;39007;53.090;6.074;2023-04-24T08:36:00;14.65;;;7.57;;
53108;SDS011;39007;53.090;6.074;2023-04-24T08:38:26;14.93;;;7.82;;
53108;SDS011;39007;53.090;6.074;2023-04-24T08:40:52;16.02;;;7.47;;
53108;SDS011;39007;53.090;6.074;2023-04-24T08:43:18;13.13;;;7.05;;
53108;SDS011;39007;53.090;6.074;2023-04-24T08:45:48;16.38;;;8.05;;
53108;SDS011;39007;53.090;6.074;2023-04-24T08:48:14;13.57;;;7.45;;
53108;SDS011;39007;53.090;6.074;2023-04-24T08:50:40;13.18;;;7.07;;
53108;SDS011;39007;53.090;6.074;2023-04-24T08:53:08;15.60;;;7.30;;
53108;SDS011;39007;53.090;6.074;2023-04-24T08:55:34;15.65;;;7.18;;
53108;SDS011;39007;53.090;6.074;2023-04-24T08:58:01;14.90;;;7.20;;
53108;SDS011;39007;53.090;6.074;2023-04-24T09:00:28;15.70;;;6.47;;
53108;SDS011;39007;53.090;6.074;2023-04-24T09:02:54;12.43;;;5.70;;
53108;SDS011;39007;53.090;6.074;2023-04-24T09:05:21;15.40;;;6.03;;
53108;SDS011;39007;53.090;6.074;2023-04-24T09:07:55;14.90;;;5.75;;
53108;SDS011;39007;53.090;6.074;2023-04-24T09:10:23;12.73;;;5.50;;
53108;SDS011;39007;53.090;6.074;2023-04-24T09:12:50;16.65;;;4.88;;
53108;SDS011;39007;53.090;6.074;2023-04-24T09:15:17;16.98;;;4.53;;
53108;SDS011;39007;53.090;6.074;2023-04-24T09:17:43;44.55;;;5.53;;
53108;SDS011;39007;53.090;6.074;2023-04-24T09:20:10;13.15;;;4.70;;
53108;SDS011;39007;53.090;6.074;2023-04-24T09:22:36;12.77;;;5.13;;
53108;SDS011;39007;53.090;6.074;2023-04-24T09:25:03;14.35;;;4.10;;
53108;SDS011;39007;53.090;6.074;2023-04-24T09:27:31;15.35;;;5.03;;
53108;SDS011;39007;53.090;6.074;2023-04-24T09:29:57;10.55;;;4.15;;
53108;SDS011;39007;53.090;6.074;2023-04-24T09:32:23;12.73;;;3.90;;
53108;SDS011;39007;53.090;6.074;2023-04-24T09:35:05;12.93;;;4.00;;
53108;SDS011;39007;53.090;6.074;2023-04-24T09:37:34;10.43;;;3.67;;
53108;SDS011;39007;53.090;6.074;2023-04-24T09:40:34;12.18;;;3.70;;
53108;SDS011;39007;53.090;6.074;2023-04-24T09:42:54;13.82;;;3.60;;
53108;SDS011;39007;53.090;6.074;2023-04-24T09:45:21;11.77;;;3.55;;
53108;SDS011;39007;53.090;6.074;2023-04-24T09:47:51;13.63;;;3.97;;
53108;SDS011;39007;53.090;6.074;2023-04-24T09:50:18;16.10;;;4.05;;
53108;SDS011;39007;53.090;6.074;2023-04-24T09:52:55;10.40;;;3.67;;
53108;SDS011;39007;53.090;6.074;2023-04-24T09:55:22;11.80;;;3.67;;
53108;SDS011;39007;53.090;6.074;2023-04-24T09:57:48;11.55;;;3.30;;
53108;SDS011;39007;53.090;6.074;2023-04-24T10:00:25;11.50;;;3.33;;
53108;SDS011;39007;53.090;6.074;2023-04-24T10:02:55;10.75;;;3.08;;
53108;SDS011;39007;53.090;6.074;2023-04-24T10:05:25;13.75;;;3.08;;
53108;SDS011;39007;53.090;6.074;2023-04-24T10:07:55;7.30;;;2.78;;
53108;SDS011;39007;53.090;6.074;2023-04-24T10:10:22;12.93;;;2.70;;
53108;SDS011;39007;53.090;6.074;2023-04-24T10:12:48;16.65;;;3.42;;
53108;SDS011;39007;53.090;6.074;2023-04-24T10:15:14;11.43;;;3.33;;
53108;SDS011;39007;53.090;6.074;2023-04-24T10:17:45;8.60;;;2.90;;
53108;SDS011;39007;53.090;6.074;2023-04-24T10:20:17;8.57;;;3.08;;
53108;SDS011;39007;53.090;6.074;2023-04-24T10:22:43;7.60;;;2.78;;
53108;SDS011;39007;53.090;6.074;2023-04-24T10:25:11;10.73;;;2.88;;
53108;SDS011;39007;53.090;6.074;2023-04-24T10:27:37;10.93;;;3.17;;
53108;SDS011;39007;53.090;6.074;2023-04-24T10:30:03;12.30;;;3.10;;
53108;SDS011;39007;53.090;6.074;2023-04-24T10:32:31;13.43;;;3.70;;
53108;SDS011;39007;53.090;6.074;2023-04-24T10:34:57;12.73;;;3.13;;
53108;SDS011;39007;53.090;6.074;2023-04-24T10:37:23;12.15;;;3.00;;
53108;SDS011;39007;53.090;6.074;2023-04-24T10:39:50;11.38;;;2.78;;
53108;SDS011;39007;53.090;6.074;2023-04-24T10:42:19;10.90;;;2.92;;
53108;SDS011;39007;53.090;6.074;2023-04-24T10:44:49;9.10;;;2.67;;
53108;SDS011;39007;53.090;6.074;2023-04-24T10:47:15;10.15;;;2.97;;
53108;SDS011;39007;53.090;6.074;2023-04-24T10:49:41;11.30;;;2.88;;
53108;SDS011;39007;53.090;6.074;2023-04-24T10:52:08;12.10;;;2.40;;
53108;SDS011;39007;53.090;6.074;2023-04-24T10:54:42;7.32;;;2.28;;
53108;SDS011;39007;53.090;6.074;2023-04-24T11:02:39;7.05;;;2.45;;
53108;SDS011;39007;53.090;6.074;2023-04-24T11:05:14;9.52;;;2.67;;
53108;SDS011;39007;53.090;6.074;2023-04-24T11:10:25;11.82;;;2.70;;
53108;SDS011;39007;53.090;6.074;2023-04-24T11:12:52;11.32;;;2.70;;
53108;SDS011;39007;53.090;6.074;2023-04-24T11:15:18;12.98;;;2.83;;
53108;SDS011;39007;53.090;6.074;2023-04-24T11:17:45;9.95;;;2.72;;
53108;SDS011;39007;53.090;6.074;2023-04-24T11:20:11;12.90;;;2.90;;
53108;SDS011;39007;53.090;6.074;2023-04-24T11:22:42;13.13;;;3.17;;
53108;SDS011;39007;53.090;6.074;2023-04-24T11:25:08;11.23;;;2.53;;
53108;SDS011;39007;53.090;6.074;2023-04-24T11:27:43;9.10;;;2.30;;
53108;SDS011;39007;53.090;6.074;2023-04-24T11:30:11;13.25;;;2.50;;
53108;SDS011;39007;53.090;6.074;2023-04-24T11:32:40;9.98;;;2.63;;
53108;SDS011;39007;53.090;6.074;2023-04-24T11:35:22;8.05;;;2.58;;
53108;SDS011;39007;53.090;6.074;2023-04-24T11:37:53;8.88;;;2.50;;
53108;SDS011;39007;53.090;6.074;2023-04-24T11:40:20;11.68;;;2.17;;
53108;SDS011;39007;53.090;6.074;2023-04-24T11:42:51;10.40;;;2.80;;
53108;SDS011;39007;53.090;6.074;2023-04-24T11:45:18;10.75;;;2.58;;
53108;SDS011;39007;53.090;6.074;2023-04-24T11:47:45;10.60;;;2.38;;
53108;SDS011;39007;53.090;6.074;2023-04-24T11:50:12;10.07;;;2.22;;
53108;SDS011;39007;53.090;6.074;2023-04-24T11:52:40;13.90;;;4.63;;
53108;SDS011;39007;53.090;6.074;2023-04-24T11:55:28;8.93;;;2.55;;
53108;SDS011;39007;53.090;6.074;2023-04-24T12:00:19;8.93;;;2.30;;
53108;SDS011;39007;53.090;6.074;2023-04-24T12:02:46;7.40;;;2.05;;
53108;SDS011;39007;53.090;6.074;2023-04-24T12:05:19;6.40;;;2.15;;
53108;SDS011;39007;53.090;6.074;2023-04-24T12:07:45;6.05;;;1.92;;
53108;SDS011;39007;53.090;6.074;2023-04-24T12:10:12;8.95;;;2.15;;
53108;SDS011;39007;53.090;6.074;2023-04-24T12:12:38;8.60;;;1.90;;
53108;SDS011;39007;53.090;6.074;2023-04-24T12:15:07;10.48;;;2.20;;
53108;SDS011;39007;53.090;6.074;2023-04-24T12:17:34;10.77;;;2.60;;
53108;SDS011;39007;53.090;6.074;2023-04-24T12:20:02;13.85;;;1.88;;
53108;SDS011;39007;53.090;6.074;2023-04-24T12:22:46;8.60;;;2.00;;
53108;SDS011;39007;53.090;6.074;2023-04-24T12:25:12;11.60;;;2.20;;
53108;SDS011;39007;53.090;6.074;2023-04-24T12:27:38;7.88;;;1.60;;
53108;SDS011;39007;53.090;6.074;2023-04-24T12:30:05;8.82;;;2.13;;
53108;SDS011;39007;53.090;6.074;2023-04-24T12:32:31;7.93;;;1.73;;
53108;SDS011;39007;53.090;6.074;2023-04-24T12:34:58;7.28;;;1.65;;
53108;SDS011;39007;53.090;6.074;2023-04-24T12:37:25;9.80;;;1.95;;
53108;SDS011;39007;53.090;6.074;2023-04-24T12:40:25;11.95;;;2.47;;
53108;SDS011;39007;53.090;6.074;2023-04-24T12:42:44;11.40;;;2.15;;
53108;SDS011;39007;53.090;6.074;2023-04-24T12:45:11;10.52;;;1.85;;
53108;SDS011;39007;53.090;6.074;2023-04-24T12:47:38;7.30;;;1.70;;
53108;SDS011;39007;53.090;6.074;2023-04-24T12:50:04;6.10;;;1.50;;
53108;SDS011;39007;53.090;6.074;2023-04-24T12:52:31;5.80;;;1.23;;
53108;SDS011;39007;53.090;6.074;2023-04-24T12:54:58;6.72;;;1.67;;
53108;SDS011;39007;53.090;6.074;2023-04-24T12:57:24;7.43;;;1.80;;
53108;SDS011;39007;53.090;6.074;2023-04-24T12:59:53;7.80;;;1.70;;
53108;SDS011;39007;53.090;6.074;2023-04-24T13:02:21;8.75;;;1.65;;
53108;SDS011;39007;53.090;6.074;2023-04-24T13:04:47;4.90;;;1.10;;
53108;SDS011;39007;53.090;6.074;2023-04-24T13:07:14;5.45;;;1.50;;
53108;SDS011;39007;53.090;6.074;2023-04-24T13:09:40;5.93;;;1.40;;
53108;SDS011;39007;53.090;6.074;2023-04-24T13:12:07;5.90;;;1.35;;
53108;SDS011;39007;53.090;6.074;2023-04-24T13:14:33;5.15;;;1.35;;
53108;SDS011;39007;53.090;6.074;2023-04-24T13:16:59;5.15;;;1.20;;
53108;SDS011;39007;53.090;6.074;2023-04-24T13:19:26;5.50;;;1.40;;
53108;SDS011;39007;53.090;6.074;2023-04-24T13:21:53;7.32;;;1.75;;
53108;SDS011;39007;53.090;6.074;2023-04-24T13:24:20;6.47;;;1.60;;
53108;SDS011;39007;53.090;6.074;2023-04-24T13:26:49;9.27;;;2.28;;
53108;SDS011;39007;53.090;6.074;2023-04-24T13:29:16;8.77;;;1.95;;
53108;SDS011;39007;53.090;6.074;2023-04-24T13:31:42;8.93;;;2.28;;
53108;SDS011;39007;53.090;6.074;2023-04-24T13:34:08;10.05;;;2.05;;
53108;SDS011;39007;53.090;6.074;2023-04-24T13:36:34;13.15;;;2.70;;
53108;SDS011;39007;53.090;6.074;2023-04-24T13:39:00;12.82;;;2.63;;
53108;SDS011;39007;53.090;6.074;2023-04-24T13:41:26;11.27;;;2.72;;
53108;SDS011;39007;53.090;6.074;2023-04-24T13:43:52;10.10;;;2.72;;
53108;SDS011;39007;53.090;6.074;2023-04-24T13:46:19;17.17;;;3.00;;
53108;SDS011;39007;53.090;6.074;2023-04-24T13:48:45;11.90;;;2.70;;
53108;SDS011;39007;53.090;6.074;2023-04-24T13:51:11;14.48;;;2.60;;
53108;SDS011;39007;53.090;6.074;2023-04-24T13:53:37;17.67;;;3.58;;
53108;SDS011;39007;53.090;6.074;2023-04-24T13:56:04;13.70;;;3.20;;
53108;SDS011;39007;53.090;6.074;2023-04-24T13:58:31;14.45;;;3.15;;
53108;SDS011;39007;53.090;6.074;2023-04-24T14:01:01;18.17;;;3.50;;
53108;SDS011;39007;53.090;6.074;2023-04-24T14:03:28;18.95;;;3.40;;
53108;SDS011;39007;53.090;6.074;2023-04-24T14:05:54;17.83;;;3.20;;
53108;SDS011;39007;53.090;6.074;2023-04-24T14:08:21;13.85;;;3.17;;
53108;SDS011;39007;53.090;6.074;2023-04-24T14:10:47;20.25;;;3.78;;
53108;SDS011;39007;53.090;6.074;2023-04-24T14:13:13;15.63;;;3.33;;
53108;SDS011;39007;53.090;6.074;2023-04-24T14:15:39;12.35;;;3.60;;
53108;SDS011;39007;53.090;6.074;2023-04-24T14:18:05;15.10;;;3.50;;
53108;SDS011;39007;53.090;6.074;2023-04-24T14:20:31;16.75;;;3.47;;
53108;SDS011;39007;53.090;6.074;2023-04-24T14:22:57;12.07;;;3.45;;
53108;SDS011;39007;53.090;6.074;2023-04-24T14:25:26;17.08;;;3.17;;
53108;SDS011;39007;53.090;6.074;2023-04-24T14:27:52;12.25;;;3.30;;
53108;SDS011;39007;53.090;6.074;2023-04-24T14:30:18;11.10;;;3.15;;
53108;SDS011;39007;53.090;6.074;2023-04-24T14:32:45;12.23;;;3.30;;
53108;SDS011;39007;53.090;6.074;2023-04-24T14:35:12;13.35;;;3.42;;
53108;SDS011;39007;53.090;6.074;2023-04-24T14:37:38;16.25;;;3.80;;
53108;SDS011;39007;53.090;6.074;2023-04-24T14:40:06;16.55;;;4.28;;
53108;SDS011;39007;53.090;6.074;2023-04-24T14:42:33;14.57;;;3.42;;
53108;SDS011;39007;53.090;6.074;2023-04-24T14:45:00;15.95;;;3.53;;
53108;SDS011;39007;53.090;6.074;2023-04-24T14:47:26;19.05;;;4.30;;
53108;SDS011;39007;53.090;6.074;2023-04-24T14:49:52;12.73;;;3.55;;